Time;durP1;ratioP1;P1;durP2;ratioP2;P2;SDS_P1;SDS_P2;PMS_P1;PMS_P2;Temp;Humidity;BMP_temperature;BMP_pressure;BME280_temperature;BME280_humidity;BME280_pressure;Samples;Min_cycle;Max_cycle;Signal;HPM_P1;HPM_P2
2023/01/02 15:33:40;;;;;;;17.75;7.63;;;;;;;;;;5097282;27;86812;-65
2023/01/02 15:36:14;;;;;;;11.55;6.88;;;;;;;;;;5064843;27;86903;-65
2023/01/02 15:38:41;;;;;;;12.77;6.90;;;;;;;;;;5057708;27;88497;-66
2023/01/02 15:41:14;;;;;;;13.80;6.35;;;;;;;;;;5058098;27;87672;-65
2023/01/02 15:46:26;;;;;;;8.60;5.72;;;;;;;;;;5065164;27;87519;-66
2023/01/02 15:48:53;;;;;;;12.60;6.15;;;;;;;;;;5075165;27;87785;-65
2023/01/02 15:51:19;;;;;;;12.55;6.97;;;;;;;;;;5056915;27;88275;-66
2023/01/02 15:54:08;;;;;;;13.65;5.97;;;;;;;;;;5075745;27;89141;-66
2023/01/02 15:56:38;;;;;;;16.02;6.07;;;;;;;;;;5071328;27;88237;-65
2023/01/02 15:59:24;;;;;;;12.77;5.97;;;;;;;;;;5068602;27;88784;-65
2023/01/02 16:01:51;;;;;;;19.38;8.38;;;;;;;;;;5071342;27;87505;-65
2023/01/02 16:04:25;;;;;;;12.77;7.00;;;;;;;;;;5055940;27;89009;-66
2023/01/02 16:06:52;;;;;;;18.08;8.07;;;;;;;;;;5074580;27;87336;-66
2023/01/02 16:09:21;;;;;;;14.23;7.65;;;;;;;;;;5060257;27;88170;-65
2023/01/02 16:11:50;;;;;;;13.68;7.45;;;;;;;;;;5081214;27;88912;-65
2023/01/02 16:14:18;;;;;;;12.68;6.82;;;;;;;;;;5054823;27;87857;-65
2023/01/02 16:16:50;;;;;;;12.23;5.97;;;;;;;;;;5076273;27;87496;-66
2023/01/02 16:19:16;;;;;;;19.10;7.43;;;;;;;;;;5073545;27;87481;-65
2023/01/02 16:21:42;;;;;;;10.60;5.97;;;;;;;;;;5072872;27;87808;-66
2023/01/02 16:24:09;;;;;;;10.90;6.43;;;;;;;;;;5073580;27;87648;-66
2023/01/02 16:26:39;;;;;;;13.68;6.30;;;;;;;;;;5074135;27;87756;-66
2023/01/02 16:29:11;;;;;;;8.80;5.93;;;;;;;;;;5074355;27;88563;-65
2023/01/02 16:31:50;;;;;;;12.15;6.00;;;;;;;;;;5053806;27;88226;-65
2023/01/02 16:34:30;;;;;;;12.07;6.65;;;;;;;;;;5054586;27;87634;-66
2023/01/02 16:37:15;;;;;;;14.77;6.15;;;;;;;;;;5057638;27;86870;-65
2023/01/02 16:39:50;;;;;;;12.18;6.13;;;;;;;;;;5062583;27;87908;-66
2023/01/02 16:45:01;;;;;;;11.10;7.18;;;;;;;;;;5060950;27;87811;-66
2023/01/02 16:47:34;;;;;;;13.85;5.70;;;;;;;;;;5066289;27;87770;-66
2023/01/02 16:50:00;;;;;;;12.63;5.75;;;;;;;;;;5069865;27;88915;-65
2023/01/02 16:52:26;;;;;;;18.45;7.10;;;;;;;;;;5057907;27;87033;-66
2023/01/02 16:54:53;;;;;;;13.93;6.47;;;;;;;;;;5052134;27;87138;-66
2023/01/02 16:57:21;;;;;;;12.10;6.95;;;;;;;;;;5047739;27;87481;-65
2023/01/02 16:59:47;;;;;;;11.70;6.43;;;;;;;;;;5056200;27;87900;-65
2023/01/02 17:02:13;;;;;;;10.77;5.63;;;;;;;;;;5061451;27;88346;-65
2023/01/02 17:04:40;;;;;;;8.13;5.43;;;;;;;;;;5060496;27;87726;-66
2023/01/02 17:07:08;;;;;;;14.77;6.65;;;;;;;;;;5059918;27;88332;-65
2023/01/02 17:09:34;;;;;;;12.60;6.18;;;;;;;;;;5057574;27;87714;-66
2023/01/02 17:12:01;;;;;;;10.73;6.53;;;;;;;;;;5057297;27;87844;-65
2023/01/02 17:14:30;;;;;;;14.48;6.35;;;;;;;;;;5060100;27;87032;-66
2023/01/02 17:16:56;;;;;;;10.30;6.38;;;;;;;;;;5061198;27;87604;-66
2023/01/02 17:19:23;;;;;;;14.27;7.15;;;;;;;;;;5058951;27;87804;-65
2023/01/02 17:21:50;;;;;;;13.55;6.20;;;;;;;;;;5059638;27;87338;-66
2023/01/02 17:24:16;;;;;;;12.07;5.82;;;;;;;;;;5057533;27;87140;-66
2023/01/02 17:26:43;;;;;;;12.05;5.32;;;;;;;;;;5055330;27;89489;-65
2023/01/02 17:29:09;;;;;;;13.90;5.40;;;;;;;;;;5053684;27;87325;-66
2023/01/02 17:31:36;;;;;;;14.02;5.28;;;;;;;;;;5052313;27;88239;-65
2023/01/02 17:34:03;;;;;;;13.20;5.00;;;;;;;;;;5053882;27;87710;-66
2023/01/02 17:36:30;;;;;;;13.73;5.18;;;;;;;;;;5051959;27;87198;-65
2023/01/02 17:38:56;;;;;;;11.55;4.53;;;;;;;;;;5043839;27;87918;-65
2023/01/02 17:41:22;;;;;;;14.60;5.05;;;;;;;;;;5057084;27;88256;-65
2023/01/02 17:43:49;;;;;;;12.20;5.72;;;;;;;;;;5059205;27;87324;-66
2023/01/02 17:46:29;;;;;;;15.75;7.82;;;;;;;;;;5065502;27;86817;-66
2023/01/02 17:49:16;;;;;;;16.13;6.22;;;;;;;;;;5068570;27;87347;-66
2023/01/02 17:51:42;;;;;;;14.85;5.63;;;;;;;;;;5059127;27;88207;-65
2023/01/02 17:54:09;;;;;;;15.88;5.32;;;;;;;;;;5075201;27;88379;-65
2023/01/02 17:56:35;;;;;;;13.98;5.38;;;;;;;;;;5078063;27;87503;-66
2023/01/02 17:59:02;;;;;;;18.40;8.35;;;;;;;;;;5045882;27;87894;-66
2023/01/02 18:01:28;;;;;;;24.70;10.48;;;;;;;;;;5056293;27;88339;-65
2023/01/02 18:03:55;;;;;;;20.38;8.25;;;;;;;;;;5057640;27;89188;-66
2023/01/02 18:06:21;;;;;;;20.00;6.53;;;;;;;;;;5054953;27;91245;-66
2023/01/02 18:08:48;;;;;;;18.95;4.97;;;;;;;;;;5054717;27;87499;-66
2023/01/02 18:11:15;;;;;;;19.02;5.43;;;;;;;;;;5057499;27;87799;-65
2023/01/02 18:13:43;;;;;;;18.52;5.45;;;;;;;;;;5058211;27;87730;-65
2023/01/02 18:16:13;;;;;;;13.05;4.55;;;;;;;;;;5075242;27;88476;-66
2023/01/02 18:18:41;;;;;;;19.52;5.15;;;;;;;;;;5056133;27;87885;-66
2023/01/02 18:21:12;;;;;;;19.27;5.07;;;;;;;;;;5065485;27;87973;-65
2023/01/02 18:23:42;;;;;;;21.48;4.53;;;;;;;;;;5073362;27;88531;-65
2023/01/02 18:26:12;;;;;;;10.87;5.10;;;;;;;;;;5050485;27;88162;-65
2023/01/02 18:28:40;;;;;;;15.48;6.85;;;;;;;;;;5049275;27;87408;-65
2023/01/02 18:31:14;;;;;;;13.95;5.60;;;;;;;;;;5054823;27;87333;-65
2023/01/02 18:33:41;;;;;;;21.00;5.53;;;;;;;;;;5080813;27;86958;-65
2023/01/02 18:36:19;;;;;;;18.50;5.28;;;;;;;;;;5071091;27;88955;-65
2023/01/02 18:38:48;;;;;;;19.15;5.30;;;;;;;;;;5057173;27;87866;-66
2023/01/02 18:41:24;;;;;;;14.50;5.68;;;;;;;;;;5056902;27;87298;-65
2023/01/02 18:43:55;;;;;;;13.23;5.70;;;;;;;;;;5062036;27;87638;-66
2023/01/02 18:46:33;;;;;;;16.85;5.28;;;;;;;;;;5060257;27;87854;-65
2023/01/02 18:49:24;;;;;;;17.60;5.43;;;;;;;;;;5059404;27;87538;-66
2023/01/02 18:52:14;;;;;;;23.23;6.55;;;;;;;;;;5060581;27;88149;-65
2023/01/02 18:54:42;;;;;;;17.40;6.32;;;;;;;;;;5049318;27;88432;-65
2023/01/02 18:57:12;;;;;;;15.93;5.97;;;;;;;;;;5060302;27;87488;-66
2023/01/02 18:59:41;;;;;;;26.27;12.10;;;;;;;;;;5072962;27;87963;-65
2023/01/02 19:02:27;;;;;;;9.35;5.45;;;;;;;;;;5063102;27;89218;-65
2023/01/02 19:04:54;;;;;;;14.15;6.05;;;;;;;;;;5056989;27;88584;-65
2023/01/02 19:07:28;;;;;;;18.02;7.35;;;;;;;;;;5059845;27;87886;-66
2023/01/02 19:10:07;;;;;;;18.88;6.60;;;;;;;;;;5057662;27;87192;-66
2023/01/02 19:15:31;;;;;;;18.92;7.28;;;;;;;;;;5066702;27;87990;-66
2023/01/02 19:18:00;;;;;;;23.75;8.32;;;;;;;;;;5059176;27;87459;-66
2023/01/02 19:20:26;;;;;;;19.40;6.65;;;;;;;;;;5058559;27;87830;-65
2023/01/02 19:22:53;;;;;;;16.25;6.57;;;;;;;;;;5059485;27;87203;-66
2023/01/02 19:25:21;;;;;;;13.18;6.50;;;;;;;;;;5063429;27;87846;-65
2023/01/02 19:27:47;;;;;;;17.38;7.75;;;;;;;;;;5070503;27;87702;-66
2023/01/02 19:30:30;;;;;;;19.02;7.25;;;;;;;;;;5055786;27;87375;-66
2023/01/02 19:32:56;;;;;;;17.95;6.85;;;;;;;;;;5054809;27;88103;-66
2023/01/02 19:35:23;;;;;;;20.67;9.45;;;;;;;;;;5055979;27;88044;-66
2023/01/02 19:37:49;;;;;;;18.77;8.75;;;;;;;;;;5060420;27;87603;-66
2023/01/02 19:40:19;;;;;;;21.10;9.95;;;;;;;;;;5070163;27;87651;-66
2023/01/02 19:42:47;;;;;;;18.98;7.47;;;;;;;;;;5071550;27;87675;-66
2023/01/02 19:45:15;;;;;;;18.90;8.05;;;;;;;;;;5062040;27;88997;-66
2023/01/02 19:47:41;;;;;;;14.85;8.27;;;;;;;;;;5073728;27;88444;-66
2023/01/02 19:50:09;;;;;;;16.95;7.82;;;;;;;;;;5063546;27;87937;-66
2023/01/02 19:52:35;;;;;;;16.38;7.05;;;;;;;;;;5076319;27;89016;-65
2023/01/02 19:55:02;;;;;;;21.17;10.02;;;;;;;;;;5077215;27;88944;-66
2023/01/02 19:57:29;;;;;;;17.95;8.93;;;;;;;;;;5076097;27;89575;-66
2023/01/02 19:59:55;;;;;;;15.68;8.25;;;;;;;;;;5070310;27;90272;-66
2023/01/02 20:02:22;;;;;;;28.75;9.68;;;;;;;;;;5055590;27;89165;-65
2023/01/02 20:04:51;;;;;;;19.35;11.00;;;;;;;;;;5054960;27;89301;-66
2023/01/02 20:07:17;;;;;;;17.83;9.23;;;;;;;;;;5056109;27;89130;-66
2023/01/02 20:09:44;;;;;;;23.95;9.68;;;;;;;;;;5059766;27;88855;-66
2023/01/02 20:14:56;;;;;;;18.90;8.60;;;;;;;;;;5063658;27;88645;-66
2023/01/02 20:17:22;;;;;;;29.15;15.93;;;;;;;;;;5068069;27;89238;-66
2023/01/02 20:19:48;;;;;;;24.13;9.48;;;;;;;;;;5061484;27;90724;-66
2023/01/02 20:22:14;;;;;;;17.23;9.23;;;;;;;;;;5064831;27;89635;-66
2023/01/02 20:24:41;;;;;;;22.55;10.27;;;;;;;;;;5058781;27;89581;-66
2023/01/02 20:27:07;;;;;;;26.95;10.48;;;;;;;;;;5054918;27;89146;-65
2023/01/02 20:29:33;;;;;;;27.77;12.35;;;;;;;;;;5070097;27;89398;-66
2023/01/02 20:32:00;;;;;;;24.05;12.65;;;;;;;;;;5070438;27;89306;-65
2023/01/02 20:34:26;;;;;;;23.38;11.75;;;;;;;;;;5057483;27;90405;-65
2023/01/02 20:36:52;;;;;;;22.08;12.25;;;;;;;;;;5060032;27;89884;-66
2023/01/02 20:39:19;;;;;;;31.40;13.18;;;;;;;;;;5078256;27;89328;-66
2023/01/02 20:41:45;;;;;;;42.67;17.55;;;;;;;;;;5080885;27;90154;-66
2023/01/02 20:44:12;;;;;;;41.75;17.65;;;;;;;;;;5078278;27;89729;-66
2023/01/02 20:46:38;;;;;;;31.55;15.70;;;;;;;;;;5063565;27;90056;-66
2023/01/02 20:49:05;;;;;;;33.00;18.00;;;;;;;;;;5057684;27;89664;-66
2023/01/02 20:51:32;;;;;;;33.40;16.58;;;;;;;;;;5070979;27;89412;-66
2023/01/02 20:53:59;;;;;;;34.47;16.33;;;;;;;;;;5072711;27;93254;-66
2023/01/02 20:56:26;;;;;;;32.42;18.25;;;;;;;;;;5067273;27;90993;-65
2023/01/02 20:58:53;;;;;;;30.58;15.70;;;;;;;;;;5079695;27;91941;-66
2023/01/02 21:01:19;;;;;;;33.65;15.75;;;;;;;;;;5062378;27;89365;-66
2023/01/02 21:03:46;;;;;;;25.55;16.10;;;;;;;;;;5049087;27;90528;-66
2023/01/02 21:06:13;;;;;;;35.78;22.75;;;;;;;;;;5079431;27;91039;-65
2023/01/02 21:08:39;;;;;;;47.28;24.80;;;;;;;;;;5071612;27;89495;-65
2023/01/02 21:11:05;;;;;;;41.00;21.60;;;;;;;;;;5066432;27;89474;-65
2023/01/02 21:13:32;;;;;;;35.10;18.98;;;;;;;;;;5078800;27;90331;-66
2023/01/02 21:15:58;;;;;;;38.78;19.45;;;;;;;;;;5070052;27;89007;-66
2023/01/02 21:18:29;;;;;;;43.92;19.48;;;;;;;;;;5058737;27;89225;-65
2023/01/02 21:20:57;;;;;;;49.58;20.50;;;;;;;;;;5063437;27;90521;-66
2023/01/02 21:23:24;;;;;;;45.35;19.73;;;;;;;;;;5057687;27;89754;-66
2023/01/02 21:25:51;;;;;;;40.00;19.17;;;;;;;;;;5061748;27;88901;-66
2023/01/02 21:28:17;;;;;;;33.92;18.70;;;;;;;;;;5071678;27;89700;-66
2023/01/02 21:30:44;;;;;;;46.85;21.27;;;;;;;;;;5073896;27;89057;-65
2023/01/02 21:33:11;;;;;;;44.78;20.10;;;;;;;;;;5075408;27;90090;-65
2023/01/02 21:35:38;;;;;;;46.47;25.00;;;;;;;;;;5078253;27;89607;-66
2023/01/02 21:38:04;;;;;;;53.25;27.38;;;;;;;;;;5058392;27;89227;-65
2023/01/02 21:40:31;;;;;;;63.97;31.27;;;;;;;;;;5074534;27;90589;-66
2023/01/02 21:42:57;;;;;;;60.47;29.83;;;;;;;;;;5069911;27;89738;-66
2023/01/02 21:45:23;;;;;;;80.45;34.45;;;;;;;;;;5073566;27;89019;-66
2023/01/02 21:47:50;;;;;;;79.15;42.45;;;;;;;;;;5060840;27;89878;-66
2023/01/02 21:50:16;;;;;;;51.35;27.50;;;;;;;;;;5058226;27;89129;-66
2023/01/02 21:52:43;;;;;;;31.77;19.05;;;;;;;;;;5058575;27;90503;-66
2023/01/02 21:55:10;;;;;;;30.08;16.27;;;;;;;;;;5077426;27;89590;-66
2023/01/02 21:57:36;;;;;;;27.05;16.13;;;;;;;;;;5064823;27;90117;-65
2023/01/02 22:00:23;;;;;;;33.67;17.23;;;;;;;;;;5070551;27;88960;-66
2023/01/02 22:02:50;;;;;;;30.15;15.77;;;;;;;;;;5077633;27;89787;-66
2023/01/02 22:05:17;;;;;;;29.90;15.38;;;;;;;;;;5072941;27;89293;-65
2023/01/02 22:07:44;;;;;;;26.35;14.27;;;;;;;;;;5073652;27;89124;-66
2023/01/02 22:10:11;;;;;;;25.27;13.45;;;;;;;;;;5055771;27;89078;-66
2023/01/02 22:12:37;;;;;;;20.13;12.18;;;;;;;;;;5057523;27;89024;-66
2023/01/02 22:15:04;;;;;;;24.92;12.65;;;;;;;;;;5055679;27;89828;-65
2023/01/02 22:17:30;;;;;;;19.42;11.40;;;;;;;;;;5066955;27;90217;-66
2023/01/02 22:19:57;;;;;;;26.23;12.48;;;;;;;;;;5077119;27;90418;-65
2023/01/02 22:22:23;;;;;;;21.13;10.77;;;;;;;;;;5077607;27;89783;-66
2023/01/02 22:24:50;;;;;;;23.42;12.35;;;;;;;;;;5078295;27;89152;-65
2023/01/02 22:27:17;;;;;;;22.27;13.70;;;;;;;;;;5069174;27;90182;-65
2023/01/02 22:29:44;;;;;;;21.02;12.23;;;;;;;;;;5074256;27;90155;-65
2023/01/02 22:32:32;;;;;;;26.02;11.75;;;;;;;;;;5077659;27;89758;-66
2023/01/02 22:35:02;;;;;;;21.73;11.82;;;;;;;;;;5062934;27;89566;-65
2023/01/02 22:37:28;;;;;;;24.02;13.63;;;;;;;;;;5056062;27;89029;-66
2023/01/02 22:39:55;;;;;;;28.83;14.93;;;;;;;;;;5066675;27;90392;-66
2023/01/02 22:45:30;;;;;;;23.63;12.13;;;;;;;;;;5073645;27;89254;-65
2023/01/02 22:47:58;;;;;;;28.15;12.70;;;;;;;;;;5069502;27;90219;-66
2023/01/02 22:50:26;;;;;;;29.52;12.50;;;;;;;;;;5062451;27;89668;-66
2023/01/02 22:52:53;;;;;;;25.75;13.07;;;;;;;;;;5058588;27;88970;-66
2023/01/02 22:55:20;;;;;;;24.67;12.70;;;;;;;;;;5056303;27;89667;-66
2023/01/02 22:57:47;;;;;;;25.08;12.55;;;;;;;;;;5055940;27;89811;-66
2023/01/02 23:00:18;;;;;;;24.00;12.55;;;;;;;;;;5054447;27;90042;-66
2023/01/02 23:02:44;;;;;;;22.42;10.95;;;;;;;;;;5052704;27;89883;-65
2023/01/02 23:05:17;;;;;;;22.10;11.95;;;;;;;;;;5055266;27;88999;-66
2023/01/02 23:07:44;;;;;;;18.90;11.55;;;;;;;;;;5056652;27;90427;-66
2023/01/02 23:10:11;;;;;;;23.80;12.65;;;;;;;;;;5057014;27;89403;-65
2023/01/02 23:12:37;;;;;;;23.48;11.38;;;;;;;;;;5069999;27;90030;-65
2023/01/02 23:15:04;;;;;;;23.75;11.32;;;;;;;;;;5079703;27;91227;-66
2023/01/02 23:20:15;;;;;;;17.10;10.82;;;;;;;;;;5055567;27;90054;-65
2023/01/02 23:22:42;;;;;;;17.60;10.82;;;;;;;;;;5074761;27;89599;-65
2023/01/02 23:25:08;;;;;;;21.08;11.13;;;;;;;;;;5076078;27;89327;-65
2023/01/02 23:27:35;;;;;;;20.42;11.30;;;;;;;;;;5074768;27;89174;-66
2023/01/02 23:30:01;;;;;;;18.98;10.80;;;;;;;;;;5077306;27;89281;-66
2023/01/02 23:32:28;;;;;;;18.98;11.45;;;;;;;;;;5073854;27;89330;-66
2023/01/02 23:34:54;;;;;;;20.67;11.32;;;;;;;;;;5057849;27;91075;-66
2023/01/02 23:37:20;;;;;;;15.93;10.57;;;;;;;;;;5059089;27;89442;-66
2023/01/02 23:39:46;;;;;;;19.00;11.00;;;;;;;;;;5052609;27;90364;-66
2023/01/02 23:42:13;;;;;;;25.02;12.13;;;;;;;;;;5052234;27;89900;-66
